Aviation Digital Data Service (ADDS)

Output produced by METARs form (2259 UTC 24 July 2014)
found at http://aviationweather.gov/adds/metars/
 
KGSP 242212Z 2422/2518 25008KT P6SM VCSH SCT040 BKN080 
     FM250100 VRB03KT P6SM SCT045 
     FM251000 36003KT 5SM BR SCT250 
     FM251300 04004KT P6SM FEW045